createdAt,value
2023-04-17T00:02:00.776Z,96597.09
2023-04-17T00:04:31.326Z,96550.81
2023-04-17T00:06:59.630Z,96593.91
2023-04-17T00:09:26.676Z,96517.38
2023-04-17T00:11:53.463Z,96578.34
2023-04-17T00:14:20.397Z,96574.81
2023-04-17T00:16:47.638Z,96595.94
2023-04-17T00:19:14.564Z,96577.94
2023-04-17T00:21:41.492Z,96602.06
2023-04-17T00:24:08.321Z,96602.44
2023-04-17T00:26:35.264Z,96563.34
2023-04-17T00:29:02.398Z,96564.81
2023-04-17T00:31:30.836Z,96561.09
2023-04-17T00:33:59.062Z,96570.16
2023-04-17T00:36:27.424Z,96594.09
2023-04-17T00:38:54.353Z,96576.06
2023-04-17T00:41:21.202Z,96576.78
2023-04-17T00:43:48.243Z,96556.25
2023-04-17T00:46:15.527Z,96590.31
2023-04-17T00:48:44.374Z,96554.28
2023-04-17T00:51:11.744Z,96541.47
2023-04-17T00:53:39.359Z,96549.25
2023-04-17T00:56:06.780Z,96550.94
2023-04-17T00:58:33.677Z,96586.47
2023-04-17T01:01:00.712Z,96560.09
2023-04-17T01:03:30.189Z,96588.91
2023-04-17T01:05:58.060Z,96517.38
2023-04-17T01:08:25.075Z,96568.50
2023-04-17T01:10:52.251Z,96557.28
2023-04-17T01:13:19.172Z,96545.81
2023-04-17T01:15:47.247Z,96495.09
2023-04-17T01:18:14.278Z,96580.38
2023-04-17T01:20:41.295Z,96508.75
2023-04-17T01:23:08.529Z,96565.41
2023-04-17T01:25:36.296Z,96523.88
2023-04-17T01:28:03.290Z,96570.16
2023-04-17T01:30:30.320Z,96575.91
2023-04-17T01:33:02.382Z,96534.13
2023-04-17T01:35:29.485Z,96519.22
2023-04-17T01:37:56.642Z,96586.19
2023-04-17T01:40:23.448Z,96547.63
2023-04-17T01:42:50.393Z,96554.06
2023-04-17T01:45:17.279Z,96552.03
2023-04-17T01:47:44.198Z,96578.81
2023-04-17T01:50:11.812Z,96545.31
2023-04-17T01:52:40.046Z,96577.66
2023-04-17T01:55:07.448Z,96584.63
2023-04-17T01:57:34.402Z,96510.34
2023-04-17T02:00:01.364Z,96575.22
2023-04-17T02:02:39.517Z,96559.56
2023-04-17T02:05:10.103Z,96567.03
2023-04-17T02:07:36.990Z,96540.75
2023-04-17T02:10:03.995Z,96517.06
2023-04-17T02:12:30.908Z,96564.25
2023-04-17T02:15:01.419Z,96563.94
2023-04-17T02:17:28.492Z,96544.50
2023-04-17T02:19:55.565Z,96571.47
2023-04-17T02:22:22.449Z,96562.59
2023-04-17T02:24:49.299Z,96580.09
2023-04-17T02:27:16.604Z,96580.97
2023-04-17T02:29:43.913Z,96565.22
2023-04-17T02:32:11.014Z,96533.91
2023-04-17T02:34:38.195Z,96572.00
2023-04-17T02:37:05.106Z,96573.97
2023-04-17T02:39:33.983Z,96573.84
2023-04-17T02:42:02.543Z,96570.56
2023-04-17T02:44:29.622Z,96561.41
2023-04-17T02:46:56.695Z,96580.94
2023-04-17T02:49:23.917Z,96591.84
2023-04-17T02:51:51.305Z,96574.94
2023-04-17T02:54:18.196Z,96556.94
2023-04-17T02:56:45.540Z,96585.53
2023-04-17T02:59:14.007Z,96538.69
2023-04-17T03:01:41.115Z,96597.44
2023-04-17T03:04:08.273Z,96571.75
2023-04-17T03:06:35.154Z,96595.69
2023-04-17T03:09:03.977Z,96559.19
2023-04-17T03:11:31.129Z,96576.13
2023-04-17T03:13:57.973Z,96554.16
2023-04-17T03:16:24.852Z,96568.44
2023-04-17T03:18:53.179Z,96554.81
2023-04-17T03:21:20.989Z,96576.16
2023-04-17T03:23:49.375Z,96569.44
2023-04-17T03:26:17.348Z,96508.66
2023-04-17T03:28:44.226Z,96554.06
2023-04-17T03:31:11.139Z,96563.69
2023-04-17T03:33:38.933Z,96581.22
2023-04-17T03:36:06.430Z,96552.38
2023-04-17T03:38:37.171Z,96596.56
2023-04-17T03:41:05.952Z,96532.63
2023-04-17T03:43:32.929Z,96533.03
2023-04-17T03:45:59.872Z,96561.16
2023-04-17T03:48:28.148Z,96582.56
2023-04-17T03:50:55.018Z,96581.50
2023-04-17T03:53:22.874Z,96579.94
2023-04-17T03:55:50.673Z,96535.34
2023-04-17T03:58:27.872Z,96588.03
2023-04-17T04:00:55.852Z,96576.13
2023-04-17T04:03:26.886Z,96592.50
2023-04-17T04:05:53.984Z,96573.00
2023-04-17T04:08:21.283Z,96608.75
2023-04-17T04:10:51.476Z,96593.47
2023-04-17T04:13:23.556Z,96601.81
2023-04-17T04:15:57.216Z,96570.97
2023-04-17T04:18:26.557Z,96615.06
2023-04-17T04:20:53.794Z,96579.13
2023-04-17T04:23:28.366Z,96620.91
2023-04-17T04:25:58.121Z,96593.88
2023-04-17T04:28:35.059Z,96617.59
2023-04-17T04:31:03.006Z,96597.56
2023-04-17T04:33:36.151Z,96626.19
2023-04-17T04:36:03.232Z,96612.44
2023-04-17T04:38:33.160Z,96593.38
2023-04-17T04:41:10.561Z,96626.06
2023-04-17T04:43:39.185Z,96592.59
2023-04-17T04:46:09.075Z,96582.97
2023-04-17T04:48:42.660Z,96622.38
2023-04-17T04:51:10.150Z,96616.44
2023-04-17T04:53:38.537Z,96627.03
2023-04-17T04:56:06.119Z,96632.41
2023-04-17T04:58:34.437Z,96609.84
2023-04-17T05:01:02.899Z,96609.06
2023-04-17T05:03:38.711Z,96624.03
2023-04-17T05:06:07.251Z,96584.34
2023-04-17T05:08:41.125Z,96619.38
2023-04-17T05:11:14.985Z,96626.19
2023-04-17T05:13:42.530Z,96616.34
2023-04-17T05:16:16.105Z,96630.66
2023-04-17T05:18:44.452Z,96609.94
2023-04-17T05:21:14.574Z,96643.09
2023-04-17T05:23:42.243Z,96649.84
2023-04-17T05:26:09.070Z,96488.91
2023-04-17T05:28:36.260Z,96574.22
2023-04-17T05:31:03.359Z,96605.56
2023-04-17T05:33:37.800Z,96634.94
2023-04-17T05:36:06.605Z,96665.13
2023-04-17T05:38:36.926Z,96630.97
2023-04-17T05:41:09.681Z,96635.91
2023-04-17T05:43:37.464Z,96666.75
2023-04-17T05:46:04.464Z,96660.63
2023-04-17T05:48:31.467Z,96648.56
2023-04-17T05:50:58.560Z,96667.63
2023-04-17T05:53:25.427Z,96649.72
2023-04-17T05:55:56.129Z,96675.22
2023-04-17T05:58:24.487Z,96668.59
2023-04-17T06:00:55.387Z,96659.16
2023-04-17T06:03:24.190Z,96623.75
2023-04-17T06:05:57.788Z,96671.63
2023-04-17T06:08:25.353Z,96621.03
2023-04-17T06:10:52.609Z,96646.44
2023-04-17T06:13:19.502Z,96658.56
2023-04-17T06:15:50.651Z,96644.56
2023-04-17T06:18:18.031Z,96650.31
2023-04-17T06:20:45.814Z,96682.50
2023-04-17T06:23:12.895Z,96691.56
2023-04-17T06:25:39.857Z,96681.53
2023-04-17T06:28:06.762Z,96649.25
2023-04-17T06:30:34.423Z,96669.59
2023-04-17T06:33:02.593Z,96677.75
2023-04-17T06:35:30.219Z,96626.78
2023-04-17T06:38:03.833Z,96697.69
2023-04-17T06:40:31.051Z,96667.31
2023-04-17T06:42:58.118Z,96706.06
2023-04-17T06:45:27.894Z,96676.75
2023-04-17T06:47:54.767Z,96692.91
2023-04-17T06:50:22.010Z,96682.41
2023-04-17T06:52:48.853Z,96686.94
2023-04-17T06:55:15.874Z,96688.81
2023-04-17T06:57:42.744Z,96679.78
2023-04-17T07:00:10.319Z,96713.72
2023-04-17T07:02:37.310Z,96709.75
2023-04-17T07:05:07.852Z,96724.53
2023-04-17T07:07:36.145Z,96728.72
2023-04-17T07:10:04.523Z,96721.47
2023-04-17T07:12:31.491Z,96707.47
2023-04-17T07:14:58.312Z,96706.94
2023-04-17T07:17:25.654Z,96701.75
2023-04-17T07:19:52.552Z,96731.16
2023-04-17T07:22:19.405Z,96737.50
2023-04-17T07:24:46.431Z,96733.84
2023-04-17T07:27:13.358Z,96735.53
2023-04-17T07:29:40.175Z,96708.31
2023-04-17T07:32:07.945Z,96740.84
2023-04-17T07:34:34.757Z,96746.06
2023-04-17T07:37:01.948Z,96721.97
2023-04-17T07:39:31.847Z,96660.19
2023-04-17T07:41:58.822Z,96736.41
2023-04-17T07:44:25.647Z,96756.66
2023-04-17T07:46:52.509Z,96727.97
2023-04-17T07:49:19.348Z,96727.50
2023-04-17T07:51:46.433Z,96729.66
2023-04-17T07:54:13.455Z,96766.59
2023-04-17T07:56:40.588Z,96765.16
2023-04-17T07:59:07.431Z,96765.34
2023-04-17T08:01:34.266Z,96741.97
2023-04-17T08:04:01.475Z,96746.94
2023-04-17T08:06:28.680Z,96735.38
2023-04-17T08:08:55.573Z,96740.25
2023-04-17T08:11:22.616Z,96774.25
2023-04-17T08:13:49.470Z,96776.19
2023-04-17T08:16:16.454Z,96773.09
2023-04-17T08:18:43.422Z,96776.31
2023-04-17T08:21:10.335Z,96779.72
2023-04-17T08:23:37.177Z,96761.81
2023-04-17T08:26:04.332Z,96734.91
2023-04-17T08:28:31.505Z,96761.41
2023-04-17T08:30:58.783Z,96749.06
2023-04-17T08:33:27.325Z,96788.28
2023-04-17T08:35:54.240Z,96757.13
2023-04-17T08:38:21.190Z,96771.03
2023-04-17T08:40:52.270Z,96796.13
2023-04-17T08:43:21.180Z,96766.16
2023-04-17T08:45:55.744Z,96768.78
2023-04-17T08:48:23.746Z,96784.56
2023-04-17T08:50:53.127Z,96792.59
2023-04-17T08:53:21.584Z,96786.75
2023-04-17T08:55:48.985Z,96754.44
2023-04-17T08:58:16.155Z,96788.38
2023-04-17T09:00:44.911Z,96794.94
2023-04-17T09:03:13.855Z,96762.09
2023-04-17T09:05:46.161Z,96754.47
2023-04-17T09:08:16.309Z,96782.88
2023-04-17T09:10:54.210Z,96792.41
2023-04-17T09:13:25.560Z,96798.44
2023-04-17T09:16:21.691Z,96790.91
2023-04-17T09:18:49.623Z,96743.41
2023-04-17T09:21:19.081Z,96792.78
2023-04-17T09:23:49.657Z,96788.31
2023-04-17T09:26:24.433Z,96796.84
2023-04-17T09:29:12.350Z,96765.19
2023-04-17T09:31:43.157Z,96804.69
2023-04-17T09:34:13.576Z,96775.91
2023-04-17T09:36:42.330Z,96787.81
2023-04-17T09:39:21.039Z,96766.06
2023-04-17T09:41:48.097Z,96789.28
2023-04-17T09:44:28.774Z,96793.91
2023-04-17T09:46:56.122Z,96778.59
2023-04-17T09:49:42.734Z,96807.41
2023-04-17T09:52:09.703Z,96787.56
2023-04-17T09:54:40.127Z,96793.59
2023-04-17T09:57:08.736Z,96807.41
2023-04-17T09:59:45.535Z,96767.31
2023-04-17T10:02:20.132Z,96798.97
2023-04-17T10:04:47.869Z,96808.88
2023-04-17T10:07:16.660Z,96815.84
2023-04-17T10:09:47.455Z,96780.41
2023-04-17T10:12:16.793Z,96802.69
2023-04-17T10:14:47.247Z,96771.09
2023-04-17T10:17:37.451Z,96801.25
2023-04-17T10:20:23.204Z,96794.94
2023-04-17T10:22:56.276Z,96803.31
2023-04-17T10:25:29.921Z,96789.53
2023-04-17T10:28:02.185Z,96791.31
2023-04-17T10:30:56.247Z,96798.75
2023-04-17T10:33:27.473Z,96757.09
2023-04-17T10:35:55.121Z,96798.97
2023-04-17T10:38:35.994Z,96787.59
2023-04-17T10:41:04.868Z,96774.78
2023-04-17T10:43:32.050Z,96786.03
2023-04-17T10:46:06.141Z,96792.75
2023-04-17T10:48:38.934Z,96791.81
2023-04-17T10:51:24.809Z,96787.66
2023-04-17T10:54:01.953Z,96764.94
2023-04-17T10:56:32.820Z,96798.50
2023-04-17T10:59:05.227Z,96754.03
2023-04-17T11:01:40.095Z,96781.69
2023-04-17T11:04:08.708Z,96781.91
2023-04-17T11:06:40.261Z,96777.91
2023-04-17T11:09:09.454Z,96766.88
2023-04-17T11:11:44.694Z,96790.78
2023-04-17T11:14:15.212Z,96718.50
2023-04-17T11:16:43.514Z,96760.75
2023-04-17T11:19:13.178Z,96777.50
2023-04-17T11:21:42.673Z,96781.31
2023-04-17T11:24:10.452Z,96784.78
2023-04-17T11:26:47.792Z,96785.50
2023-04-17T11:29:22.592Z,96747.47
2023-04-17T11:31:52.219Z,96784.09
2023-04-17T11:34:19.856Z,96759.28
2023-04-17T11:36:51.319Z,96760.56
2023-04-17T11:39:20.110Z,96792.31
2023-04-17T11:41:47.115Z,96749.19
2023-04-17T11:44:15.124Z,96769.19
2023-04-17T11:46:42.201Z,96752.47
2023-04-17T11:49:09.851Z,96790.44
2023-04-17T11:51:36.963Z,96783.22
2023-04-17T11:54:03.989Z,96774.16
2023-04-17T11:56:31.207Z,96754.78
2023-04-17T11:58:59.636Z,96796.91
2023-04-17T12:01:28.074Z,96754.69
2023-04-17T12:03:59.675Z,96769.72
2023-04-17T12:06:37.413Z,96775.72
2023-04-17T12:09:04.758Z,96744.16
2023-04-17T12:11:33.267Z,96778.53
2023-04-17T12:14:01.223Z,96779.34
2023-04-17T12:16:29.530Z,96748.03
2023-04-17T12:18:56.968Z,96780.19
2023-04-17T12:21:24.232Z,96773.34
2023-04-17T12:23:51.859Z,96771.41
2023-04-17T12:26:18.758Z,96753.91
2023-04-17T12:28:45.623Z,96777.06
2023-04-17T12:31:12.941Z,96726.19
2023-04-17T12:33:39.816Z,96749.97
2023-04-17T12:36:07.535Z,96754.16
2023-04-17T12:38:34.470Z,96746.94
2023-04-17T12:41:01.314Z,96770.56
2023-04-17T12:43:28.191Z,96751.03
2023-04-17T12:45:55.162Z,96748.16
2023-04-17T12:48:22.118Z,96745.13
2023-04-17T12:50:48.910Z,96727.72
2023-04-17T12:53:16.182Z,96773.31
2023-04-17T12:55:44.255Z,96767.38
2023-04-17T12:58:13.354Z,96776.19
2023-04-17T13:00:44.031Z,96773.13
2023-04-17T13:03:12.361Z,96767.97
2023-04-17T13:05:39.738Z,96776.22
2023-04-17T13:08:06.626Z,96767.97
2023-04-17T13:10:34.542Z,96732.88
2023-04-17T13:13:02.679Z,96726.50
2023-04-17T13:15:29.653Z,96748.22
2023-04-17T13:17:56.570Z,96771.13
2023-04-17T13:20:23.608Z,96762.81
2023-04-17T13:22:50.572Z,96750.16
2023-04-17T13:25:17.717Z,96745.84
2023-04-17T13:27:44.619Z,96735.00
2023-04-17T13:30:11.958Z,96747.41
2023-04-17T13:32:40.596Z,96759.31
2023-04-17T13:35:09.878Z,96732.25
2023-04-17T13:37:36.810Z,96762.94
2023-04-17T13:40:06.581Z,96726.16
2023-04-17T13:42:33.523Z,96717.03
2023-04-17T13:45:00.373Z,96697.22
2023-04-17T13:47:27.315Z,96752.56
2023-04-17T13:49:54.353Z,96730.38
2023-04-17T13:52:21.320Z,96720.25
2023-04-17T13:54:48.779Z,96743.22
2023-04-17T13:57:18.651Z,96735.84
2023-04-17T13:59:45.587Z,96705.84
2023-04-17T14:02:12.536Z,96716.13
2023-04-17T14:04:39.549Z,96726.31
2023-04-17T14:07:06.564Z,96723.22
2023-04-17T14:09:33.523Z,96741.00
2023-04-17T14:12:00.363Z,96752.94
2023-04-17T14:14:28.275Z,96747.66
2023-04-17T14:16:55.194Z,96717.53
2023-04-17T14:19:22.116Z,96742.41
2023-04-17T14:21:48.946Z,96724.81
2023-04-17T14:24:16.055Z,96756.03
2023-04-17T14:26:42.901Z,96725.88
2023-04-17T14:29:14.143Z,96721.84
2023-04-17T14:31:41.372Z,96740.06
2023-04-17T14:34:08.311Z,96732.75
2023-04-17T14:36:35.905Z,96732.75
2023-04-17T14:39:03.551Z,96711.75
2023-04-17T14:41:34.275Z,96728.69
2023-04-17T14:44:01.369Z,96707.88
2023-04-17T14:46:28.419Z,96722.34
2023-04-17T14:48:56.384Z,96736.63
2023-04-17T14:51:24.401Z,96738.66
2023-04-17T14:53:53.097Z,96722.44
2023-04-17T14:56:21.827Z,96729.44
2023-04-17T14:58:49.082Z,96723.25
2023-04-17T15:01:16.234Z,96747.00
2023-04-17T15:03:46.660Z,96710.91
2023-04-17T15:06:15.887Z,96703.63
2023-04-17T15:08:42.927Z,96742.63
2023-04-17T15:11:09.842Z,96741.06
2023-04-17T15:13:36.732Z,96712.16
2023-04-17T15:16:03.885Z,96683.25
2023-04-17T15:18:31.110Z,96744.81
2023-04-17T15:20:58.224Z,96763.88
2023-04-17T15:23:26.740Z,96741.56
2023-04-17T15:25:57.945Z,96762.56
2023-04-17T15:28:25.622Z,96763.06
2023-04-17T15:30:52.608Z,96722.03
2023-04-17T15:33:20.046Z,96773.22
2023-04-17T15:35:47.085Z,96744.41
2023-04-17T15:38:13.946Z,96757.19
2023-04-17T15:40:40.835Z,96738.13
2023-04-17T15:43:07.800Z,96754.31
2023-04-17T15:45:34.666Z,96750.34
2023-04-17T15:48:01.951Z,96748.66
2023-04-17T15:50:28.993Z,96737.88
2023-04-17T15:52:55.873Z,96753.88
2023-04-17T15:55:22.763Z,96732.69
2023-04-17T15:57:49.679Z,96761.28
2023-04-17T16:00:17.101Z,96722.66
2023-04-17T16:02:47.738Z,96730.34
2023-04-17T16:05:16.148Z,96735.91
2023-04-17T16:07:43.407Z,96712.84
2023-04-17T16:10:14.684Z,96756.03
2023-04-17T16:12:45.543Z,96767.63
2023-04-17T16:15:14.615Z,96713.25
2023-04-17T16:17:42.099Z,96741.66
2023-04-17T16:20:11.125Z,96736.66
2023-04-17T16:22:38.295Z,96743.22
2023-04-17T16:25:06.539Z,96760.13
2023-04-17T16:27:33.892Z,96750.84
2023-04-17T16:30:07.147Z,96756.81
2023-04-17T16:32:41.253Z,96745.09
2023-04-17T16:35:08.834Z,96764.38
2023-04-17T16:37:35.937Z,96716.28
2023-04-17T16:40:05.290Z,96723.31
2023-04-17T16:42:32.723Z,96712.41
2023-04-17T16:44:59.680Z,96742.44
2023-04-17T16:47:29.424Z,96747.03
2023-04-17T16:49:56.471Z,96729.53
2023-04-17T16:52:23.354Z,96679.91
2023-04-17T16:54:50.414Z,96741.19
2023-04-17T16:57:17.345Z,96750.78
2023-04-17T16:59:44.189Z,96767.34
2023-04-17T17:02:11.161Z,96771.28
2023-04-17T17:04:38.230Z,96772.41
2023-04-17T17:07:05.340Z,96735.56
2023-04-17T17:09:32.314Z,96766.34
2023-04-17T17:11:59.148Z,96758.13
2023-04-17T17:14:26.022Z,96768.44
2023-04-17T17:16:53.473Z,96775.16
2023-04-17T17:19:20.809Z,96799.44
2023-04-17T17:21:47.684Z,96776.66
2023-04-17T17:24:14.554Z,96805.88
2023-04-17T17:26:41.490Z,96783.09
2023-04-17T17:29:08.354Z,96763.63
2023-04-17T17:31:35.326Z,96780.94
2023-04-17T17:34:20.770Z,96796.13
2023-04-17T17:36:49.692Z,96774.91
2023-04-17T17:39:16.930Z,96801.09
2023-04-17T17:41:45.185Z,96763.22
2023-04-17T17:44:14.429Z,96778.22
2023-04-17T17:46:41.591Z,96793.69
2023-04-17T17:49:08.645Z,96806.94
2023-04-17T17:51:35.514Z,96756.00
2023-04-17T17:54:02.436Z,96789.00
2023-04-17T17:56:29.348Z,96772.28
2023-04-17T17:58:56.313Z,96762.91
2023-04-17T18:01:26.054Z,96797.38
2023-04-17T18:03:53.621Z,96802.63
2023-04-17T18:06:21.480Z,96819.31
2023-04-17T18:08:48.450Z,96776.63
2023-04-17T18:11:15.585Z,96804.13
2023-04-17T18:13:42.429Z,96790.06
2023-04-17T18:16:09.819Z,96810.94
2023-04-17T18:18:37.029Z,96821.84
2023-04-17T18:21:07.879Z,96777.88
2023-04-17T18:23:35.003Z,96824.38
2023-04-17T18:26:03.430Z,96806.91
2023-04-17T18:28:30.494Z,96815.69
2023-04-17T18:30:57.572Z,96807.31
2023-04-17T18:33:25.099Z,96816.53
2023-04-17T18:35:52.453Z,96806.59
2023-04-17T18:38:19.865Z,96841.97
2023-04-17T18:40:47.260Z,96833.84
2023-04-17T18:43:14.704Z,96788.44
2023-04-17T18:45:42.067Z,96849.47
2023-04-17T18:48:09.160Z,96753.97
2023-04-17T18:50:38.637Z,96802.19
2023-04-17T18:53:05.643Z,96833.59
2023-04-17T18:55:32.687Z,96779.06
2023-04-17T18:57:59.561Z,96853.25
2023-04-17T19:00:26.522Z,96820.09
2023-04-17T19:02:53.565Z,96818.97
2023-04-17T19:05:21.714Z,96868.41
2023-04-17T19:07:48.928Z,96841.50
2023-04-17T19:10:15.996Z,96844.06
2023-04-17T19:12:44.247Z,96871.44
2023-04-17T19:15:11.861Z,96840.41
2023-04-17T19:17:39.036Z,96862.47
2023-04-17T19:20:06.592Z,96869.69
2023-04-17T19:22:33.442Z,96837.72
2023-04-17T19:25:00.379Z,96836.53
2023-04-17T19:27:27.462Z,96855.44
2023-04-17T19:29:54.319Z,96819.69
2023-04-17T19:32:21.432Z,96835.19
2023-04-17T19:34:48.467Z,96866.13
2023-04-17T19:37:15.390Z,96810.84
2023-04-17T19:39:42.478Z,96804.25
2023-04-17T19:42:09.345Z,96844.00
2023-04-17T19:44:36.205Z,96834.75
2023-04-17T19:47:03.172Z,96851.69
2023-04-17T19:49:31.466Z,96844.72
2023-04-17T19:51:59.480Z,96867.25
2023-04-17T19:54:27.414Z,96815.00
2023-04-17T19:56:54.352Z,96846.69
2023-04-17T19:59:21.382Z,96834.41
2023-04-17T20:01:49.083Z,96859.63
2023-04-17T20:04:16.981Z,96833.88
2023-04-17T20:06:44.445Z,96834.47
2023-04-17T20:09:14.048Z,96832.06
2023-04-17T20:11:41.722Z,96853.81
2023-04-17T20:14:08.600Z,96851.09
2023-04-17T20:16:35.472Z,96834.22
2023-04-17T20:19:02.696Z,96851.09
2023-04-17T20:21:29.541Z,96770.63
2023-04-17T20:23:56.472Z,96797.09
2023-04-17T20:26:23.306Z,96812.84
2023-04-17T20:28:50.297Z,96818.34
2023-04-17T20:31:17.302Z,96814.19
2023-04-17T20:33:44.212Z,96783.78
2023-04-17T20:36:12.479Z,96852.69
2023-04-17T20:38:39.712Z,96841.56
2023-04-17T20:41:06.613Z,96813.03
2023-04-17T20:43:33.457Z,96820.78
2023-04-17T20:46:00.410Z,96838.72
2023-04-17T20:48:27.362Z,96862.22
2023-04-17T20:50:55.193Z,96836.31
2023-04-17T20:53:22.127Z,96864.69
2023-04-17T20:55:49.390Z,96860.09
2023-04-17T20:58:16.221Z,96839.09
2023-04-17T21:00:54.386Z,96852.59
2023-04-17T21:03:30.348Z,96801.97
2023-04-17T21:05:57.518Z,96837.44
2023-04-17T21:08:24.771Z,96818.94
2023-04-17T21:10:51.889Z,96827.03
2023-04-17T21:13:18.741Z,96839.28
2023-04-17T21:15:45.700Z,96812.75
2023-04-17T21:18:12.564Z,96855.56
2023-04-17T21:20:39.564Z,96840.91
2023-04-17T21:23:06.407Z,96844.59
2023-04-17T21:25:33.280Z,96828.41
2023-04-17T21:28:00.135Z,96839.84
2023-04-17T21:30:27.594Z,96826.84
2023-04-17T21:32:54.586Z,96820.41
2023-04-17T21:35:21.717Z,96839.25
2023-04-17T21:37:48.589Z,96844.66
2023-04-17T21:40:15.429Z,96827.03
2023-04-17T21:42:42.726Z,96820.63
2023-04-17T21:45:10.077Z,96812.19
2023-04-17T21:47:37.010Z,96824.03
2023-04-17T21:50:04.320Z,96834.91
2023-04-17T21:52:31.359Z,96849.13
2023-04-17T21:55:03.339Z,96818.88
2023-04-17T21:57:31.583Z,96838.84
2023-04-17T21:59:58.448Z,96828.44
2023-04-17T22:02:25.512Z,96799.50
2023-04-17T22:04:52.802Z,96861.78
2023-04-17T22:07:21.694Z,96813.88
2023-04-17T22:09:48.924Z,96858.81
2023-04-17T22:12:23.036Z,96836.38
2023-04-17T22:14:50.044Z,96812.31
2023-04-17T22:17:16.893Z,96828.47
2023-04-17T22:19:43.796Z,96824.50
2023-04-17T22:22:10.819Z,96838.03
2023-04-17T22:24:37.657Z,96816.28
2023-04-17T22:27:04.487Z,96826.19
2023-04-17T22:29:31.462Z,96817.06
2023-04-17T22:31:58.289Z,96805.59
2023-04-17T22:34:25.165Z,96810.22
2023-04-17T22:36:52.037Z,96840.75
2023-04-17T22:39:18.852Z,96789.88
2023-04-17T22:41:45.785Z,96786.75
2023-04-17T22:44:13.049Z,96820.06
2023-04-17T22:46:40.165Z,96804.25
2023-04-17T22:49:07.750Z,96804.53
2023-04-17T22:51:34.776Z,96845.19
2023-04-17T22:54:11.638Z,96814.16
2023-04-17T22:56:46.228Z,96810.53
2023-04-17T22:59:13.065Z,96836.16
2023-04-17T23:01:39.979Z,96823.97
2023-04-17T23:04:06.852Z,96839.06
2023-04-17T23:06:33.681Z,96797.69
2023-04-17T23:09:00.577Z,96821.94
2023-04-17T23:11:27.526Z,96804.41
2023-04-17T23:13:54.532Z,96842.97
2023-04-17T23:16:21.470Z,96846.88
2023-04-17T23:18:48.381Z,96802.66
2023-04-17T23:21:15.959Z,96850.28
2023-04-17T23:23:42.838Z,96818.47
2023-04-17T23:26:09.750Z,96808.59
2023-04-17T23:28:36.617Z,96824.75
2023-04-17T23:31:05.249Z,96821.09
2023-04-17T23:33:35.583Z,96827.59
2023-04-17T23:36:02.604Z,96833.75
2023-04-17T23:38:29.478Z,96791.78
2023-04-17T23:40:56.331Z,96800.63
2023-04-17T23:43:23.656Z,96828.88
2023-04-17T23:45:50.686Z,96808.59
2023-04-17T23:48:17.612Z,96761.13
2023-04-17T23:50:44.507Z,96797.75
2023-04-17T23:53:11.413Z,96770.66
2023-04-17T23:55:38.434Z,96785.41
2023-04-17T23:58:05.305Z,96754.56
